Time;durP1;ratioP1;P1;durP2;ratioP2;P2;SDS_P1;SDS_P2;PMS_P1;PMS_P2;Temp;Humidity;BMP_temperature;BMP_pressure;BME280_temperature;BME280_humidity;BME280_pressure;Samples;Min_cycle;Max_cycle;Signal;HPM_P1;HPM_P2
2022/08/12 00:43:34;;;;;;;10.32;5.60;;;19.00;99.90;;;;;;5059671;28;270006;-66
2022/08/12 00:48:46;;;;;;;11.18;5.40;;;18.90;99.90;;;;;;5052793;28;271367;-67
2022/08/12 00:51:13;;;;;;;10.73;5.50;;;18.80;99.90;;;;;;5028030;28;208878;-65
2022/08/12 00:53:39;;;;;;;11.30;5.50;;;18.80;99.90;;;;;;5059365;28;268185;-65
2022/08/12 00:56:06;;;;;;;12.15;5.18;;;18.80;99.90;;;;;;5027707;28;213242;-66
2022/08/12 00:58:33;;;;;;;10.97;5.20;;;18.70;99.90;;;;;;5062327;28;256079;-66
2022/08/12 01:01:03;;;;;;;11.43;5.45;;;18.70;99.90;;;;;;5029217;28;215633;-66
2022/08/12 01:11:27;;;;;;;11.45;4.90;;;18.60;99.90;;;;;;5033046;28;265428;-66
2022/08/12 01:11:52;;;;;;;10.43;5.43;;;18.50;99.90;;;;;;5031077;28;218209;-66
2022/08/12 01:14:22;;;;;;;11.00;5.15;;;18.50;99.90;;;;;;5058437;28;258931;-66
2022/08/12 01:16:51;;;;;;;10.73;5.25;;;18.40;99.90;;;;;;5029219;28;219300;-66
2022/08/12 01:19:20;;;;;;;10.25;5.10;;;18.40;99.90;;;;;;5059456;28;258585;-65
2022/08/12 01:21:52;;;;;;;10.02;5.32;;;18.30;99.90;;;;;;5035728;28;212631;-66
2022/08/12 01:24:40;;;;;;;10.13;5.30;;;18.30;99.90;;;;;;5035650;28;103315;-65
2022/08/12 01:27:08;;;;;;;11.10;4.95;;;18.30;99.90;;;;;;5034279;28;220162;-66
2022/08/12 01:29:40;;;;;;;10.48;4.80;;;18.30;99.90;;;;;;5062622;28;258271;-66
2022/08/12 01:32:09;;;;;;;9.98;4.93;;;18.30;99.90;;;;;;5030024;28;208900;-65
2022/08/12 01:34:37;;;;;;;10.13;5.15;;;18.20;99.90;;;;;;5044644;28;126244;-65
2022/08/12 01:37:06;;;;;;;9.95;4.63;;;18.20;99.90;;;;;;5010956;28;206649;-65
2022/08/12 01:39:46;;;;;;;10.75;4.95;;;18.20;99.90;;;;;;5026418;28;56610;-65
2022/08/12 01:42:17;;;;;;;10.60;5.00;;;18.10;99.90;;;;;;5032662;28;216229;-65
2022/08/12 01:44:45;;;;;;;10.73;5.38;;;18.10;99.90;;;;;;5061240;28;258201;-66
2022/08/12 01:47:34;;;;;;;10.20;5.15;;;18.10;99.90;;;;;;5024855;28;231003;-66
2022/08/12 01:50:26;;;;;;;10.65;4.90;;;18.00;99.90;;;;;;5050808;28;255659;-66
2022/08/12 01:52:52;;;;;;;11.85;5.20;;;18.00;99.90;;;;;;5029253;28;215130;-66
2022/08/12 01:55:22;;;;;;;11.00;5.20;;;17.90;99.90;;;;;;5064055;28;262596;-66
2022/08/12 01:57:59;;;;;;;10.57;5.57;;;17.90;99.90;;;;;;5017097;28;210453;-67
2022/08/12 02:00:30;;;;;;;9.40;5.20;;;17.90;99.90;;;;;;5069039;28;268741;-66
2022/08/12 02:03:08;;;;;;;10.15;5.30;;;17.80;99.90;;;;;;5035755;28;214987;-67
2022/08/12 02:11:38;;;;;;;10.40;5.53;;;17.70;99.90;;;;;;5040592;28;216463;-65
2022/08/12 02:14:05;;;;;;;10.32;5.38;;;17.70;99.90;;;;;;5062858;28;267560;-66
2022/08/12 02:17:14;;;;;;;10.23;5.88;;;17.70;99.90;;;;;;5022327;28;210163;-66
2022/08/12 02:20:20;;;;;;;13.45;5.60;;;17.70;99.90;;;;;;5055313;28;237596;-66
2022/08/12 02:22:50;;;;;;;11.07;5.45;;;17.60;99.90;;;;;;5017463;28;207366;-66
2022/08/12 02:25:35;;;;;;;12.70;5.47;;;17.60;99.90;;;;;;5064599;28;264358;-66
2022/08/12 02:28:02;;;;;;;11.93;5.38;;;17.60;99.90;;;;;;5020443;28;215168;-66
2022/08/12 02:30:30;;;;;;;11.18;5.88;;;17.60;99.90;;;;;;5044847;28;273427;-66
2022/08/12 02:32:59;;;;;;;17.92;6.25;;;17.50;99.90;;;;;;5029344;28;214320;-65
2022/08/12 02:35:29;;;;;;;11.73;5.78;;;17.50;99.90;;;;;;5067866;28;255991;-66
2022/08/12 02:37:57;;;;;;;10.75;5.68;;;17.50;99.90;;;;;;5025068;28;216543;-66
2022/08/12 02:40:26;;;;;;;12.25;6.63;;;17.40;99.90;;;;;;5050713;28;143147;-66
2022/08/12 02:43:04;;;;;;;9.65;5.65;;;17.40;99.90;;;;;;5031137;28;210247;-66
2022/08/12 02:45:55;;;;;;;11.27;5.57;;;17.40;99.90;;;;;;5059440;28;257650;-66
2022/08/12 02:48:47;;;;;;;10.32;5.97;;;17.40;99.90;;;;;;4986599;28;249341;-65
2022/08/12 02:51:18;;;;;;;11.15;6.03;;;17.40;99.90;;;;;;5032213;28;219699;-66
2022/08/12 02:53:45;;;;;;;10.85;5.78;;;17.30;99.90;;;;;;5062318;28;259934;-65
2022/08/12 02:56:11;;;;;;;10.43;6.10;;;17.30;99.90;;;;;;5008738;28;220882;-66
2022/08/12 02:58:39;;;;;;;11.93;6.10;;;17.30;99.90;;;;;;5048068;28;261509;-64
2022/08/12 03:01:10;;;;;;;11.15;5.88;;;17.30;99.90;;;;;;5041705;28;210089;-66
2022/08/12 03:03:38;;;;;;;12.90;6.32;;;17.30;99.90;;;;;;5035562;28;260881;-65
2022/08/12 03:06:27;;;;;;;13.15;6.68;;;17.30;99.90;;;;;;5025188;28;211189;-66
2022/08/12 03:08:57;;;;;;;10.27;5.95;;;17.20;99.90;;;;;;5052345;28;134135;-66
2022/08/12 03:11:45;;;;;;;14.40;6.97;;;17.20;99.90;;;;;;5034531;28;209156;-65
2022/08/12 03:14:16;;;;;;;12.25;6.40;;;17.20;99.90;;;;;;5054532;28;267762;-65
2022/08/12 03:16:49;;;;;;;13.05;7.03;;;17.20;99.90;;;;;;4998564;28;211533;-65
2022/08/12 03:19:20;;;;;;;11.10;6.70;;;17.10;99.90;;;;;;5033833;28;257489;-65
2022/08/12 03:21:50;;;;;;;16.52;7.43;;;17.10;99.90;;;;;;5025073;28;210252;-66
2022/08/12 03:24:17;;;;;;;12.77;6.45;;;17.10;99.90;;;;;;5054349;28;274023;-66
2022/08/12 03:26:47;;;;;;;12.23;6.88;;;17.10;99.90;;;;;;5032670;28;217969;-65
2022/08/12 03:29:16;;;;;;;13.77;6.40;;;17.10;99.90;;;;;;5056921;28;267273;-66
2022/08/12 03:31:42;;;;;;;12.00;6.65;;;17.00;99.90;;;;;;5039401;28;211097;-66
2022/08/12 03:34:13;;;;;;;12.15;6.95;;;17.10;99.90;;;;;;5060309;28;276835;-66
2022/08/12 03:36:41;;;;;;;14.43;6.97;;;17.00;99.90;;;;;;5029426;28;212469;-66
2022/08/12 03:42:09;;;;;;;12.35;6.68;;;17.00;99.90;;;;;;5029121;28;219677;-66
2022/08/12 04:01:57;;;;;;;13.27;7.43;;;16.80;99.90;;;;;;5021266;28;216617;-66
2022/08/12 04:04:34;;;;;;;12.35;6.85;;;16.80;99.90;;;;;;5028309;28;238007;-66
2022/08/12 04:07:08;;;;;;;12.45;7.03;;;16.80;99.90;;;;;;5026624;28;210194;-66
2022/08/12 04:09:37;;;;;;;12.45;7.28;;;16.80;99.90;;;;;;5061277;28;257602;-66
2022/08/12 04:14:50;;;;;;;13.82;7.13;;;16.80;99.90;;;;;;5044442;28;212937;-66
2022/08/12 04:17:18;;;;;;;13.50;6.80;;;16.70;99.90;;;;;;5041309;28;209258;-64
2022/08/12 04:19:47;;;;;;;15.40;7.30;;;16.70;99.90;;;;;;5061629;28;260900;-64
2022/08/12 04:22:14;;;;;;;13.98;7.43;;;16.80;99.90;;;;;;5017366;28;214455;-64
2022/08/12 04:24:43;;;;;;;12.00;6.68;;;16.80;99.90;;;;;;5056325;28;270229;-64
2022/08/12 04:27:10;;;;;;;13.20;6.93;;;16.80;99.90;;;;;;5017471;28;207614;-65
2022/08/12 04:29:38;;;;;;;12.60;6.88;;;16.80;99.90;;;;;;5061856;28;259926;-65
2022/08/12 04:32:06;;;;;;;12.00;6.57;;;16.80;99.90;;;;;;5029187;28;208700;-66
2022/08/12 04:34:33;;;;;;;11.77;6.32;;;16.80;99.90;;;;;;5060792;28;277374;-64
2022/08/12 04:36:59;;;;;;;10.77;6.50;;;16.80;99.90;;;;;;5032315;28;209151;-64
2022/08/12 04:39:26;;;;;;;12.85;6.65;;;16.80;99.90;;;;;;5060050;28;258120;-64
2022/08/12 04:41:53;;;;;;;12.75;7.20;;;16.80;99.90;;;;;;5039100;28;209920;-66
2022/08/12 04:44:19;;;;;;;11.30;6.32;;;16.80;99.90;;;;;;5065790;28;254917;-65
2022/08/12 04:46:45;;;;;;;11.75;6.20;;;16.90;99.90;;;;;;5031142;28;212334;-65
2022/08/12 04:49:11;;;;;;;12.57;7.10;;;16.90;99.90;;;;;;5055771;28;253200;-65
2022/08/12 04:51:38;;;;;;;12.02;6.40;;;16.90;99.90;;;;;;5027476;28;211399;-66
2022/08/12 04:54:05;;;;;;;12.50;6.57;;;16.90;99.90;;;;;;5061309;28;259574;-65
2022/08/12 04:56:31;;;;;;;13.80;5.75;;;17.00;99.90;;;;;;5021313;28;209925;-64
2022/08/12 04:58:58;;;;;;;11.65;6.05;;;17.00;99.90;;;;;;5061767;28;249559;-65
2022/08/12 05:01:31;;;;;;;10.93;6.07;;;17.10;99.90;;;;;;5025943;28;213992;-65
2022/08/12 05:03:58;;;;;;;10.05;5.78;;;17.10;99.90;;;;;;5034117;28;274903;-65
2022/08/12 05:06:25;;;;;;;13.95;6.22;;;17.10;99.90;;;;;;5039520;28;214311;-65
2022/08/12 05:08:59;;;;;;;12.90;6.43;;;17.10;99.90;;;;;;5056530;28;102716;-64
2022/08/12 05:11:26;;;;;;;13.70;5.88;;;17.20;99.90;;;;;;5030605;28;209010;-66
2022/08/12 05:13:58;;;;;;;15.40;6.35;;;17.20;99.90;;;;;;5053510;28;192751;-65
2022/08/12 05:16:25;;;;;;;12.00;6.00;;;17.30;99.90;;;;;;5004279;28;205979;-65
2022/08/12 05:18:51;;;;;;;11.68;6.05;;;17.30;99.90;;;;;;5049122;28;266890;-65
2022/08/12 05:21:18;;;;;;;12.00;6.32;;;17.40;99.90;;;;;;5033422;28;212505;-65
2022/08/12 05:23:44;;;;;;;14.45;6.03;;;17.40;99.90;;;;;;5065595;28;271258;-65
2022/08/12 05:26:10;;;;;;;11.20;5.55;;;17.40;99.90;;;;;;5018745;28;209622;-65
2022/08/12 05:28:36;;;;;;;12.52;5.47;;;17.50;99.90;;;;;;5061029;28;255357;-65
2022/08/12 05:31:03;;;;;;;10.20;5.60;;;17.50;99.90;;;;;;5044211;28;210381;-66
2022/08/12 05:33:38;;;;;;;12.30;5.60;;;17.60;99.90;;;;;;5060624;28;273366;-66
2022/08/12 05:36:06;;;;;;;11.75;5.78;;;17.70;99.90;;;;;;5034230;28;216705;-67
2022/08/12 05:41:19;;;;;;;14.40;5.10;;;17.80;99.90;;;;;;5034397;28;215228;-66
2022/08/12 05:43:50;;;;;;;12.30;4.90;;;17.90;99.90;;;;;;5068006;28;256080;-66
2022/08/12 05:46:16;;;;;;;;;;;18.00;99.90;;;;;;5025157;28;209647;-66
2022/08/12 05:48:42;;;;;;;9.98;4.40;;;18.10;99.90;;;;;;5060124;28;270128;-67
2022/08/12 05:51:10;;;;;;;13.25;4.72;;;18.10;99.90;;;;;;5040683;28;213988;-66
2022/08/12 05:53:38;;;;;;;13.20;4.90;;;18.20;99.90;;;;;;5053853;28;254975;-66
2022/08/12 05:56:05;;;;;;;11.40;4.45;;;18.30;99.90;;;;;;5039205;28;210113;-66
2022/08/12 05:58:31;;;;;;;9.48;4.45;;;18.40;99.90;;;;;;5061311;28;270264;-66
2022/08/12 06:00:59;;;;;;;11.75;4.53;;;18.50;99.90;;;;;;5036539;28;209491;-66
2022/08/12 06:03:26;;;;;;;10.43;4.27;;;18.50;99.90;;;;;;5037324;28;260938;-65
2022/08/12 06:05:52;;;;;;;12.83;4.60;;;18.60;99.90;;;;;;5030770;28;213709;-65
2022/08/12 06:08:18;;;;;;;13.48;4.40;;;18.70;99.90;;;;;;5063365;28;258872;-66
2022/08/12 06:10:44;;;;;;;8.88;3.60;;;18.80;99.90;;;;;;5032349;28;215645;-66
2022/08/12 06:13:13;;;;;;;10.98;4.30;;;18.90;99.90;;;;;;5070258;28;20474;-64
2022/08/12 06:15:40;;;;;;;9.55;3.83;;;19.00;99.90;;;;;;5044926;28;243800;-65
2022/08/12 06:18:11;;;;;;;10.20;3.55;;;19.10;99.90;;;;;;5043083;28;80767;-65
2022/08/12 06:20:38;;;;;;;14.98;3.92;;;19.40;99.90;;;;;;5051212;28;167254;-66
2022/08/12 06:23:04;;;;;;;9.05;3.35;;;19.80;99.90;;;;;;5025763;28;206075;-66
2022/08/12 06:25:33;;;;;;;10.30;3.50;;;20.20;99.90;;;;;;5059381;28;273736;-66
2022/08/12 06:28:00;;;;;;;10.57;3.30;;;20.60;99.90;;;;;;5021410;28;209742;-65
2022/08/12 06:30:28;;;;;;;11.45;3.10;;;21.00;99.90;;;;;;5064769;28;253680;-66
2022/08/12 06:32:55;;;;;;;10.13;2.95;;;21.40;99.90;;;;;;5030945;28;212342;-66
2022/08/12 06:35:21;;;;;;;8.05;3.00;;;21.70;99.90;;;;;;5061892;28;266864;-66
2022/08/12 06:37:51;;;;;;;8.32;3.05;;;22.00;99.90;;;;;;5031152;28;214733;-66
2022/08/12 06:42:46;;;;;;;9.50;2.90;;;22.30;99.90;;;;;;5062365;28;273887;-66
2022/08/12 06:43:07;;;;;;;9.70;3.00;;;22.60;99.90;;;;;;5021743;28;210851;-67
2022/08/12 06:45:43;;;;;;;9.60;2.80;;;22.90;99.90;;;;;;5061308;28;254479;-66
2022/08/12 06:48:10;;;;;;;9.10;2.90;;;23.20;99.90;;;;;;5020655;28;213076;-67
2022/08/12 06:50:37;;;;;;;10.20;3.00;;;23.30;99.90;;;;;;5062115;28;273839;-67
2022/08/12 06:53:05;;;;;;;11.70;2.63;;;23.60;99.90;;;;;;5025766;28;210195;-67
2022/08/12 06:55:32;;;;;;;10.90;2.83;;;23.70;99.90;;;;;;5062825;28;262526;-66
2022/08/12 06:58:00;;;;;;;10.10;2.80;;;24.00;99.90;;;;;;5030282;28;212335;-66
2022/08/12 07:00:29;;;;;;;10.23;2.50;;;24.30;99.90;;;;;;5057328;28;45378;-67
2022/08/12 07:02:56;;;;;;;10.57;2.47;;;24.40;99.90;;;;;;5038437;28;214271;-66
2022/08/12 07:05:23;;;;;;;11.15;2.53;;;24.70;99.90;;;;;;5039302;28;138335;-67
2022/08/12 07:08:15;;;;;;;11.02;2.55;;;24.90;99.90;;;;;;5029005;28;225064;-67
2022/08/12 07:10:56;;;;;;;12.68;2.70;;;25.20;99.00;;;;;;5034293;28;264421;-65
2022/08/12 07:13:23;;;;;;;9.85;2.42;;;25.40;99.00;;;;;;5021373;28;264386;-68
2022/08/12 07:15:55;;;;;;;8.10;2.50;;;25.60;98.80;;;;;;5026251;28;214914;-67
2022/08/12 07:18:28;;;;;;;8.48;2.30;;;25.80;98.20;;;;;;5052628;28;255425;-67
2022/08/12 07:20:55;;;;;;;10.13;2.27;;;26.00;97.80;;;;;;5020268;28;209667;-67
2022/08/12 07:23:23;;;;;;;9.43;2.25;;;26.20;97.50;;;;;;5045405;28;273289;-67
2022/08/12 07:25:49;;;;;;;8.38;2.40;;;26.40;97.10;;;;;;5029760;28;227702;-67
2022/08/12 07:28:18;;;;;;;7.93;2.20;;;26.60;96.60;;;;;;5079010;28;20049;-67
2022/08/12 07:30:48;;;;;;;9.18;2.33;;;26.90;96.40;;;;;;4990640;28;209907;-67
2022/08/12 07:33:15;;;;;;;7.90;2.15;;;27.00;95.90;;;;;;5078711;28;20406;-67
2022/08/12 07:35:46;;;;;;;8.38;2.33;;;27.20;95.80;;;;;;5031063;28;272167;-66
2022/08/12 07:38:32;;;;;;;9.98;2.38;;;27.40;95.50;;;;;;5026163;28;207500;-68
2022/08/12 07:41:09;;;;;;;13.07;2.40;;;27.60;94.70;;;;;;5006590;28;203409;-68
2022/08/12 07:43:46;;;;;;;11.15;2.30;;;27.80;94.50;;;;;;5034205;28;257625;-67
2022/08/12 07:46:19;;;;;;;12.30;2.38;;;28.10;94.30;;;;;;5020278;28;203593;-69
2022/08/12 07:48:53;;;;;;;10.55;2.20;;;28.30;94.00;;;;;;5061880;28;261304;-68
2022/08/12 07:51:21;;;;;;;8.23;2.45;;;28.60;93.20;;;;;;5037712;28;210538;-68
2022/08/12 07:53:48;;;;;;;11.13;2.40;;;28.90;92.80;;;;;;5054593;28;260538;-68
2022/08/12 07:56:17;;;;;;;8.82;2.00;;;29.10;92.10;;;;;;5031173;28;218291;-68
2022/08/12 07:58:43;;;;;;;10.40;2.20;;;29.20;91.20;;;;;;5048482;28;258144;-68
2022/08/12 08:01:20;;;;;;;9.02;2.22;;;29.40;90.40;;;;;;5040967;28;208693;-68
2022/08/12 08:06:41;;;;;;;10.23;2.10;;;29.80;89.10;;;;;;5024802;28;216580;-67
2022/08/12 08:09:10;;;;;;;8.55;2.20;;;29.90;87.70;;;;;;5054005;28;259329;-67
2022/08/12 08:14:24;;;;;;;13.70;2.13;;;30.40;84.30;;;;;;5053456;28;267209;-68
2022/08/12 08:16:50;;;;;;;10.80;2.28;;;30.50;83.60;;;;;;5028924;28;216482;-68
2022/08/12 08:19:22;;;;;;;9.20;2.10;;;30.80;82.40;;;;;;5055410;28;261439;-68
2022/08/12 08:21:54;;;;;;;8.50;2.00;;;31.00;81.40;;;;;;5027912;28;188732;-68
2022/08/12 08:24:25;;;;;;;8.13;2.20;;;31.40;80.50;;;;;;5018640;28;100278;-68
2022/08/12 08:26:55;;;;;;;8.82;1.98;;;31.60;79.60;;;;;;5032703;28;215392;-69
2022/08/12 08:29:23;;;;;;;9.93;2.13;;;31.80;77.80;;;;;;5065101;28;254395;-69
2022/08/12 08:31:53;;;;;;;9.20;2.25;;;32.00;77.10;;;;;;5034441;28;220596;-69
2022/08/12 08:34:20;;;;;;;7.97;2.00;;;32.20;75.80;;;;;;5053448;28;52751;-69
2022/08/12 08:36:47;;;;;;;9.18;2.00;;;32.30;73.90;;;;;;5029914;28;223712;-69
2022/08/12 08:39:20;;;;;;;9.63;2.22;;;32.60;73.10;;;;;;5055718;28;265894;-70
2022/08/12 08:44:38;;;;;;;6.78;2.10;;;33.10;72.10;;;;;;5065664;28;249224;-69
2022/08/12 08:47:09;;;;;;;9.55;2.00;;;33.30;70.30;;;;;;5034198;28;220771;-69
2022/08/12 08:49:36;;;;;;;11.00;2.42;;;33.50;69.80;;;;;;5061853;28;267575;-69
2022/08/12 08:52:07;;;;;;;12.13;2.13;;;33.70;68.80;;;;;;5027730;28;207414;-70
2022/08/12 08:54:36;;;;;;;11.43;2.00;;;34.00;67.20;;;;;;5056788;28;64160;-69
2022/08/12 08:57:04;;;;;;;17.25;4.65;;;34.20;65.40;;;;;;5032690;28;212386;-69
2022/08/12 08:59:30;;;;;;;9.70;2.25;;;34.30;64.20;;;;;;5059008;28;257604;-70
2022/08/12 09:01:57;;;;;;;10.30;2.17;;;34.50;62.90;;;;;;5033693;28;210454;-70
2022/08/12 09:04:23;;;;;;;8.20;2.13;;;34.70;63.10;;;;;;5042734;28;265146;-69
2022/08/12 09:06:55;;;;;;;14.15;2.30;;;34.90;63.00;;;;;;5021580;28;213040;-69
2022/08/12 09:09:22;;;;;;;10.45;2.17;;;35.00;61.50;;;;;;5061042;28;272602;-69
2022/08/12 09:14:32;;;;;;;7.32;2.10;;;35.20;59.10;;;;;;5058889;28;278157;-68
2022/08/12 09:16:59;;;;;;;13.57;2.08;;;35.30;58.70;;;;;;5012537;28;209081;-68
2022/08/12 09:19:25;;;;;;;8.65;1.70;;;35.50;57.70;;;;;;5044685;28;188750;-68
2022/08/12 09:21:52;;;;;;;7.95;2.10;;;35.80;57.10;;;;;;5023723;28;228085;-69
2022/08/12 09:24:18;;;;;;;8.50;2.03;;;36.10;55.60;;;;;;5058406;28;255037;-69
2022/08/12 09:26:46;;;;;;;9.35;1.90;;;36.20;55.30;;;;;;5034213;28;209586;-68
2022/08/12 09:29:13;;;;;;;9.05;1.85;;;36.40;54.80;;;;;;5062036;28;252758;-69
2022/08/12 09:31:43;;;;;;;9.57;1.85;;;36.50;53.90;;;;;;5038604;28;219055;-69
2022/08/12 09:34:11;;;;;;;8.15;1.95;;;36.70;52.80;;;;;;5059289;28;255527;-69
2022/08/12 09:36:39;;;;;;;10.25;2.13;;;36.80;52.00;;;;;;5034710;28;210044;-69
2022/08/12 09:39:07;;;;;;;7.90;1.58;;;36.70;51.40;;;;;;5055803;28;20049;-70
2022/08/12 09:41:40;;;;;;;13.15;2.42;;;36.90;52.00;;;;;;5024041;28;212808;-69
2022/08/12 09:46:51;;;;;;;7.18;1.75;;;37.30;49.20;;;;;;5033517;28;208007;-71
2022/08/12 09:49:17;;;;;;;7.18;1.70;;;37.20;48.40;;;;;;5058785;28;258881;-69
2022/08/12 09:51:46;;;;;;;8.05;1.90;;;37.20;48.10;;;;;;5031022;28;216666;-70
2022/08/12 09:54:15;;;;;;;8.80;1.88;;;37.40;47.90;;;;;;5053641;28;142752;-69
2022/08/12 09:56:42;;;;;;;9.63;2.10;;;37.70;47.30;;;;;;5024450;28;206273;-69
2022/08/12 09:59:08;;;;;;;8.95;1.70;;;37.80;47.30;;;;;;5058741;28;272682;-69
2022/08/12 10:01:39;;;;;;;9.55;1.83;;;38.00;46.60;;;;;;5035084;28;211019;-69
2022/08/12 10:04:09;;;;;;;6.35;1.60;;;38.10;46.30;;;;;;5048904;28;261730;-68
2022/08/12 10:06:38;;;;;;;11.50;1.80;;;38.20;45.90;;;;;;5041181;28;210809;-69
2022/08/12 10:09:05;;;;;;;6.93;1.60;;;38.40;45.50;;;;;;5064547;28;263708;-69
2022/08/12 10:14:17;;;;;;;8.15;2.00;;;38.70;44.50;;;;;;5058781;28;262028;-68
2022/08/12 10:16:43;;;;;;;11.95;1.90;;;38.60;43.90;;;;;;5032502;28;211652;-69
2022/08/12 10:19:10;;;;;;;7.75;1.90;;;38.70;43.30;;;;;;5065784;28;256865;-69
2022/08/12 10:21:39;;;;;;;8.38;1.80;;;38.70;42.50;;;;;;5033470;28;209491;-70
2022/08/12 10:24:15;;;;;;;8.88;2.00;;;38.80;43.10;;;;;;5065450;28;258203;-69
2022/08/12 10:29:46;;;;;;;6.20;1.70;;;39.00;42.30;;;;;;5064817;28;265778;-70
2022/08/12 10:32:19;;;;;;;9.73;1.90;;;39.10;42.20;;;;;;5041304;28;211837;-69
2022/08/12 10:34:48;;;;;;;9.27;1.80;;;39.20;41.80;;;;;;5063703;28;261282;-70
2022/08/12 10:37:15;;;;;;;8.77;1.95;;;39.30;41.60;;;;;;5038743;28;228064;-69
2022/08/12 10:39:42;;;;;;;9.02;1.70;;;39.20;41.30;;;;;;5056430;28;231562;-70
2022/08/12 10:45:05;;;;;;;8.77;1.73;;;39.40;40.20;;;;;;5067399;28;273782;-69
2022/08/12 10:47:34;;;;;;;7.45;1.63;;;39.30;40.40;;;;;;5037760;28;214734;-70
2022/08/12 10:50:00;;;;;;;8.77;1.67;;;39.40;40.40;;;;;;5057775;28;201709;-70
2022/08/12 10:52:30;;;;;;;12.00;1.80;;;39.50;40.40;;;;;;5031135;28;184680;-70
2022/08/12 10:54:58;;;;;;;10.38;1.80;;;39.60;39.20;;;;;;5061390;28;268421;-69
2022/08/12 10:57:25;;;;;;;6.63;1.92;;;39.70;38.90;;;;;;5040039;28;220036;-69
2022/08/12 10:59:56;;;;;;;7.68;1.60;;;39.80;38.80;;;;;;5060196;28;257208;-69
2022/08/12 11:02:24;;;;;;;7.47;1.70;;;39.90;38.10;;;;;;5011982;28;211108;-68
2022/08/12 11:04:50;;;;;;;9.25;1.60;;;40.10;38.20;;;;;;5035614;28;273963;-69
2022/08/12 11:07:16;;;;;;;6.60;1.40;;;40.30;37.70;;;;;;5030862;28;215755;-70
2022/08/12 11:09:44;;;;;;;8.95;1.70;;;40.30;37.20;;;;;;5069237;28;267573;-70
2022/08/12 11:12:10;;;;;;;6.80;1.48;;;40.50;37.90;;;;;;5020794;28;210474;-69
2022/08/12 11:14:40;;;;;;;6.60;1.63;;;40.60;37.80;;;;;;5065990;28;255945;-69
2022/08/12 11:17:11;;;;;;;7.85;1.50;;;40.90;37.30;;;;;;5039581;28;208866;-69
2022/08/12 11:19:39;;;;;;;7.22;1.40;;;41.00;37.90;;;;;;5067624;28;261841;-69
2022/08/12 11:22:07;;;;;;;11.88;1.60;;;41.10;37.80;;;;;;5028273;28;206492;-69
2022/08/12 11:24:34;;;;;;;6.97;1.45;;;41.20;37.20;;;;;;5063941;28;246210;-69
2022/08/12 11:27:03;;;;;;;6.25;1.33;;;41.40;37.70;;;;;;5019441;28;217972;-69
2022/08/12 11:29:30;;;;;;;5.82;1.40;;;41.50;37.00;;;;;;5058861;28;271025;-70
2022/08/12 11:31:56;;;;;;;10.13;1.52;;;41.50;36.90;;;;;;5031815;28;207056;-69
2022/08/12 11:34:23;;;;;;;8.18;1.30;;;41.50;36.80;;;;;;5064964;28;258430;-70
2022/08/12 11:36:59;;;;;;;8.07;1.63;;;41.50;37.00;;;;;;5013948;28;206570;-70
2022/08/12 11:39:26;;;;;;;5.20;1.40;;;41.70;36.00;;;;;;5065042;28;462996;-70
2022/08/12 11:41:52;;;;;;;8.63;1.55;;;41.50;35.10;;;;;;5037097;28;217066;-70
2022/08/12 11:44:18;;;;;;;7.95;1.30;;;41.50;36.40;;;;;;5033670;28;57776;-69
2022/08/12 11:46:45;;;;;;;7.78;1.40;;;41.70;36.90;;;;;;5028205;28;212217;-70
2022/08/12 11:49:11;;;;;;;7.60;1.23;;;41.70;36.60;;;;;;5059138;28;257121;-70
2022/08/12 11:51:38;;;;;;;8.63;1.50;;;41.80;36.00;;;;;;5019805;28;203797;-69
2022/08/12 11:54:05;;;;;;;6.32;1.42;;;41.90;36.30;;;;;;5058777;28;258423;-69
2022/08/12 11:56:31;;;;;;;7.97;1.50;;;42.10;36.00;;;;;;5001295;28;206334;-69
2022/08/12 11:58:58;;;;;;;5.13;1.30;;;42.20;35.90;;;;;;5055085;28;265333;-70
2022/08/12 12:01:24;;;;;;;6.55;1.30;;;42.00;35.30;;;;;;5028375;28;220784;-69
2022/08/12 12:03:50;;;;;;;10.32;1.55;;;42.00;35.70;;;;;;5039892;28;273754;-69
2022/08/12 12:06:19;;;;;;;5.80;1.20;;;42.20;35.00;;;;;;5027964;28;209842;-68
2022/08/12 12:08:46;;;;;;;7.65;1.30;;;42.40;35.00;;;;;;5045999;28;273973;-69
2022/08/12 12:11:13;;;;;;;6.82;1.58;;;42.60;34.20;;;;;;5028796;28;209090;-68
2022/08/12 12:13:39;;;;;;;6.68;1.40;;;42.60;34.30;;;;;;5056097;28;280808;-68
2022/08/12 12:16:06;;;;;;;6.03;1.30;;;42.60;34.20;;;;;;5022570;28;214400;-68
2022/08/12 12:18:33;;;;;;;10.88;1.50;;;42.60;34.40;;;;;;5039510;28;273802;-68
2022/08/12 12:21:05;;;;;;;5.35;1.67;;;42.60;34.50;;;;;;5016645;28;216717;-68
2022/08/12 12:23:33;;;;;;;6.30;1.37;;;42.50;34.40;;;;;;5058082;28;253787;-69
2022/08/12 12:26:00;;;;;;;5.10;1.20;;;42.50;35.30;;;;;;5027000;28;208961;-70
2022/08/12 12:28:27;;;;;;;7.90;1.35;;;42.70;35.70;;;;;;5040821;28;260147;-70
2022/08/12 12:30:53;;;;;;;8.03;1.40;;;42.90;34.60;;;;;;5036998;28;213143;-70
2022/08/12 12:33:22;;;;;;;8.23;1.38;;;43.10;34.30;;;;;;5039768;28;256013;-70
2022/08/12 12:35:48;;;;;;;7.22;1.27;;;43.00;33.70;;;;;;5032190;28;210723;-69
2022/08/12 12:38:15;;;;;;;7.13;1.30;;;42.70;33.90;;;;;;5062900;28;20052;-70
2022/08/12 12:40:43;;;;;;;6.93;1.30;;;42.60;33.20;;;;;;5038247;28;213954;-69
2022/08/12 12:43:10;;;;;;;9.90;1.30;;;42.40;34.10;;;;;;5026803;28;206684;-69
2022/08/12 12:45:40;;;;;;;7.38;1.60;;;42.60;34.30;;;;;;5057321;28;259053;-69
2022/08/12 12:48:08;;;;;;;5.55;1.30;;;42.70;34.10;;;;;;5026342;28;210050;-70
2022/08/12 12:50:36;;;;;;;8.23;1.27;;;42.60;33.80;;;;;;5061600;28;260260;-69
2022/08/12 12:53:03;;;;;;;9.07;1.35;;;42.60;34.30;;;;;;5029904;28;233377;-70
2022/08/12 12:55:31;;;;;;;6.70;1.35;;;42.70;33.30;;;;;;5052877;28;265837;-70
2022/08/12 12:57:57;;;;;;;6.97;1.40;;;42.80;33.40;;;;;;5029468;28;210062;-69
2022/08/12 13:00:24;;;;;;;8.60;1.30;;;42.70;33.70;;;;;;5058164;28;259615;-69
2022/08/12 13:02:54;;;;;;;6.85;1.20;;;42.60;33.00;;;;;;5004969;28;218252;-71
2022/08/12 13:05:30;;;;;;;7.57;1.30;;;42.60;32.90;;;;;;5012876;28;219677;-70
2022/08/12 13:07:59;;;;;;;5.15;1.30;;;42.60;32.60;;;;;;5009998;28;207017;-70
2022/08/12 13:10:28;;;;;;;7.57;1.30;;;42.60;33.40;;;;;;5060168;28;264088;-70
2022/08/12 13:12:54;;;;;;;6.30;1.40;;;42.40;33.20;;;;;;4995341;28;216310;-70
2022/08/12 13:15:21;;;;;;;7.95;1.40;;;42.20;32.80;;;;;;5059347;28;275987;-70
2022/08/12 13:17:49;;;;;;;7.25;1.40;;;42.20;33.70;;;;;;5023274;28;205772;-70
2022/08/12 13:20:20;;;;;;;6.03;1.20;;;42.20;33.40;;;;;;5044153;28;269225;-72
2022/08/12 13:22:47;;;;;;;8.07;1.50;;;42.00;33.90;;;;;;5041260;28;135275;-72
2022/08/12 13:25:18;;;;;;;6.40;1.38;;;41.90;33.70;;;;;;5061842;28;254636;-73
2022/08/12 13:27:46;;;;;;;8.27;1.40;;;42.00;33.40;;;;;;5027983;28;217210;-72
2022/08/12 13:30:19;;;;;;;12.70;1.38;;;42.10;33.60;;;;;;5042941;28;35701;-72
2022/08/12 13:32:50;;;;;;;7.72;1.23;;;42.30;33.80;;;;;;5011086;28;206378;-72
2022/08/12 13:35:17;;;;;;;5.85;1.45;;;42.40;32.70;;;;;;5064875;28;262998;-72
2022/08/12 13:37:51;;;;;;;7.30;1.30;;;42.50;33.60;;;;;;5041902;28;219750;-72
2022/08/12 13:40:17;;;;;;;7.60;1.55;;;42.70;32.60;;;;;;5068585;28;268159;-72
2022/08/12 13:42:47;;;;;;;7.97;1.40;;;42.70;33.70;;;;;;5021619;28;206102;-72
2022/08/12 13:45:14;;;;;;;4.88;1.40;;;42.70;33.30;;;;;;5058637;28;261942;-72
2022/08/12 13:47:57;;;;;;;6.60;1.58;;;42.50;33.40;;;;;;5006661;28;160285;-73
2022/08/12 13:50:37;;;;;;;7.15;1.40;;;42.60;33.40;;;;;;5052208;28;174210;-73
2022/08/12 13:53:09;;;;;;;6.30;1.33;;;42.80;33.50;;;;;;5007367;28;205488;-72
2022/08/12 13:55:37;;;;;;;10.77;1.50;;;42.80;33.30;;;;;;5034414;28;217256;-71
2022/08/12 13:58:04;;;;;;;7.28;1.50;;;42.70;33.20;;;;;;5027222;28;211857;-72
2022/08/12 14:00:35;;;;;;;6.78;1.40;;;42.70;33.80;;;;;;5067458;28;258499;-71
2022/08/12 14:03:01;;;;;;;6.55;1.25;;;42.90;34.20;;;;;;5023759;28;212588;-71
2022/08/12 14:05:28;;;;;;;9.45;1.50;;;43.10;33.70;;;;;;5052086;28;268988;-71
2022/08/12 14:07:54;;;;;;;7.95;1.60;;;43.10;33.10;;;;;;5028483;28;208149;-72
2022/08/12 14:10:35;;;;;;;7.78;1.50;;;43.00;33.60;;;;;;5060250;28;25828;-72
2022/08/12 14:13:16;;;;;;;8.88;1.60;;;43.10;34.10;;;;;;5023989;28;210248;-72
2022/08/12 14:15:49;;;;;;;8.50;1.58;;;43.10;33.20;;;;;;5003189;28;210399;-71
2022/08/12 14:18:21;;;;;;;6.60;1.60;;;43.10;33.50;;;;;;5060932;28;212570;-72
2022/08/12 14:21:02;;;;;;;7.15;1.75;;;42.90;32.80;;;;;;4988340;28;213570;-71
2022/08/12 14:23:32;;;;;;;6.82;1.67;;;43.00;33.40;;;;;;5062258;28;253319;-71
2022/08/12 14:25:59;;;;;;;9.20;1.75;;;43.10;33.30;;;;;;5030285;28;217747;-71
2022/08/12 14:28:32;;;;;;;9.18;1.67;;;42.90;33.10;;;;;;5062229;28;260867;-72
2022/08/12 14:31:09;;;;;;;7.75;1.70;;;42.80;32.90;;;;;;5031957;28;213722;-71